Time,TemperatureF,DewpointF,PressureIn,WindDirection,WindDirectionDegrees,WindSpeedMPH,WindSpeedGustMPH,Humidity,HourlyPrecipIn,Conditions,Clouds,dailyrainin,SoftwareType,DateUTC
2013-11-19 00:08:00,35.1,28.0,29.81,East,90,3.2,-999.0,75,-99.99,,,0.00,Acu-Link.com,2013-11-19 06:08:00,
2013-11-19 00:23:00,35.2,28.1,29.80,SSW,202,8.3,-999.0,75,-99.99,,,0.00,Acu-Link.com,2013-11-19 06:23:00,
2013-11-19 00:38:00,35.4,28.3,29.79,South,180,4.7,-999.0,75,-99.99,,,0.00,Acu-Link.com,2013-11-19 06:38:00,
2013-11-19 00:53:00,35.1,28.3,29.79,SSE,157,5.8,-999.0,76,-99.99,,,0.00,Acu-Link.com,2013-11-19 06:53:00,
2013-11-19 01:08:00,34.5,27.7,29.79,South,180,6.3,-999.0,76,-99.99,,,0.00,Acu-Link.com,2013-11-19 07:08:00,
2013-11-19 01:24:00,34.2,27.8,29.79,South,180,8.9,-999.0,77,-99.99,,,0.00,Acu-Link.com,2013-11-19 07:24:00,
2013-11-19 01:39:00,33.6,27.5,29.78,South,180,3.7,-999.0,78,-99.99,,,0.00,Acu-Link.com,2013-11-19 07:39:00,
2013-11-19 01:54:00,33.3,27.5,29.77,SE,135,6.8,-999.0,79,-99.99,,,0.00,Acu-Link.com,2013-11-19 07:54:00,
2013-11-19 02:09:00,33.3,27.5,29.76,SSW,202,3.7,-999.0,79,-99.99,,,0.00,Acu-Link.com,2013-11-19 08:09:00,
2013-11-19 02:24:00,33.1,27.3,29.76,SSE,157,6.8,-999.0,79,-99.99,,,0.00,Acu-Link.com,2013-11-19 08:24:00,
2013-11-19 02:40:00,32.4,26.9,29.75,SSE,157,3.7,-999.0,80,-99.99,,,0.00,Acu-Link.com,2013-11-19 08:40:00,
2013-11-19 02:55:00,32.0,26.5,29.75,South,180,2.7,-999.0,80,-99.99,,,0.00,Acu-Link.com,2013-11-19 08:55:00,
2013-11-19 03:10:00,31.8,26.6,29.74,SE,135,4.2,-999.0,81,-99.99,,,0.00,Acu-Link.com,2013-11-19 09:10:00,
2013-11-19 03:25:00,31.8,26.6,29.73,SSW,202,5.3,-999.0,81,-99.99,,,0.00,Acu-Link.com,2013-11-19 09:25:00,
2013-11-19 03:41:00,31.8,26.6,29.72,SSW,202,5.8,-999.0,81,-99.99,,,0.00,Acu-Link.com,2013-11-19 09:41:00,
2013-11-19 03:56:00,32.0,26.8,29.72,SSE,157,5.8,-999.0,81,-99.99,,,0.00,Acu-Link.com,2013-11-19 09:56:00,
2013-11-19 04:11:00,32.0,26.8,29.73,SSW,202,6.3,-999.0,81,-99.99,,,0.00,Acu-Link.com,2013-11-19 10:11:00,
2013-11-19 04:26:00,32.0,26.8,29.72,ESE,112,2.7,-999.0,81,-99.99,,,0.00,Acu-Link.com,2013-11-19 10:26:00,
2013-11-19 04:41:00,31.5,26.7,29.71,SSW,202,3.2,-999.0,82,-99.99,,,0.00,Acu-Link.com,2013-11-19 10:41:00,
2013-11-19 04:57:00,31.3,26.7,29.70,South,180,4.2,-999.0,83,-99.99,,,0.00,Acu-Link.com,2013-11-19 10:57:00,
2013-11-19 05:12:00,31.1,26.8,29.69,SSW,202,3.2,-999.0,84,-99.99,,,0.00,Acu-Link.com,2013-11-19 11:12:00,
2013-11-19 05:27:00,30.6,26.6,29.70,SSE,157,1.1,-999.0,85,-99.99,,,0.00,Acu-Link.com,2013-11-19 11:27:00,
2013-11-19 05:42:00,30.4,26.7,29.68,ENE,67,1.7,-999.0,86,-99.99,,,0.00,Acu-Link.com,2013-11-19 11:42:00,
2013-11-19 05:57:00,30.2,26.8,29.68,NW,315,0.0,-999.0,87,-99.99,,,0.00,Acu-Link.com,2013-11-19 11:57:00,
2013-11-19 06:13:00,30.2,26.8,29.67,West,270,1.1,-999.0,87,-99.99,,,0.00,Acu-Link.com,2013-11-19 12:13:00,
2013-11-19 06:28:00,30.4,27.3,29.66,ESE,112,2.2,-999.0,88,-99.99,,,0.00,Acu-Link.com,2013-11-19 12:28:00,
2013-11-19 06:43:00,30.9,27.8,29.64,SW,225,1.7,-999.0,88,-99.99,,,0.00,Acu-Link.com,2013-11-19 12:43:00,
2013-11-19 06:58:00,30.9,27.8,29.65,SE,135,2.7,-999.0,88,-99.99,,,0.00,Acu-Link.com,2013-11-19 12:58:00,
2013-11-19 07:13:00,30.9,27.8,29.62,SE,135,3.2,-999.0,88,-99.99,,,0.00,Acu-Link.com,2013-11-19 13:13:00,
2013-11-19 07:29:00,31.3,28.2,29.61,East,90,2.2,-999.0,88,-99.99,,,0.00,Acu-Link.com,2013-11-19 13:29:00,
2013-11-19 07:44:00,31.5,28.1,29.60,NNW,337,2.2,-999.0,87,-99.99,,,0.00,Acu-Link.com,2013-11-19 13:44:00,
2013-11-19 07:59:00,32.0,28.3,29.60,NE,45,5.8,-999.0,86,-99.99,,,0.00,Acu-Link.com,2013-11-19 13:59:00,
2013-11-19 08:14:00,32.2,28.2,29.60,SE,135,3.2,-999.0,85,-99.99,,,0.00,Acu-Link.com,2013-11-19 14:14:00,
2013-11-19 08:30:00,32.4,28.4,29.58,South,180,2.7,-999.0,85,-99.99,,,0.00,Acu-Link.com,2013-11-19 14:30:00,
2013-11-19 08:45:00,32.5,28.2,29.59,SSE,157,1.7,-999.0,84,-99.99,,,0.00,Acu-Link.com,2013-11-19 14:45:00,
2013-11-19 09:00:00,32.9,28.3,29.57,SSE,157,3.2,-999.0,83,-99.99,,,0.00,Acu-Link.com,2013-11-19 15:00:00,
2013-11-19 09:15:00,33.4,28.5,29.56,ENE,67,3.7,-999.0,82,-99.99,,,0.00,Acu-Link.com,2013-11-19 15:15:00,
2013-11-19 09:30:00,33.8,28.9,29.56,South,180,3.2,-999.0,82,-99.99,,,0.00,Acu-Link.com,2013-11-19 15:30:00,
2013-11-19 09:46:00,34.0,29.1,29.54,SE,135,6.3,-999.0,82,-99.99,,,0.00,Acu-Link.com,2013-11-19 15:46:00,
2013-11-19 10:01:00,34.2,29.0,29.54,ESE,112,5.8,-999.0,81,-99.99,,,0.00,Acu-Link.com,2013-11-19 16:01:00,
2013-11-19 10:16:00,34.2,29.0,29.53,ENE,67,5.3,-999.0,81,-99.99,,,0.00,Acu-Link.com,2013-11-19 16:16:00,
2013-11-19 10:31:00,34.9,29.4,29.53,North,0,2.2,-999.0,80,-99.99,,,0.00,Acu-Link.com,2013-11-19 16:31:00,
2013-11-19 10:46:00,35.8,29.9,29.52,SSE,157,2.2,-999.0,79,-99.99,,,0.00,Acu-Link.com,2013-11-19 16:46:00,
2013-11-19 11:02:00,36.7,29.9,29.52,SSE,157,2.2,-999.0,76,-99.99,,,0.00,Acu-Link.com,2013-11-19 17:02:00,
2013-11-19 11:17:00,37.2,29.7,29.50,SW,225,2.7,-999.0,74,-99.99,,,0.00,Acu-Link.com,2013-11-19 17:17:00,
2013-11-19 11:32:00,38.5,30.3,29.49,SSE,157,0.0,-999.0,72,-99.99,,,0.00,Acu-Link.com,2013-11-19 17:32:00,
2013-11-19 11:47:00,39.6,31.0,29.49,NE,45,0.0,-999.0,71,-99.99,,,0.01,Acu-Link.com,2013-11-19 17:47:00,
2013-11-19 12:02:00,39.2,30.3,29.50,South,180,4.2,-999.0,70,-99.99,,,0.02,Acu-Link.com,2013-11-19 18:02:00,
2013-11-19 12:18:00,38.7,30.5,29.48,SSE,157,4.2,-999.0,72,-99.99,,,0.03,Acu-Link.com,2013-11-19 18:18:00,
2013-11-19 12:33:00,38.5,30.3,29.48,South,180,2.7,-999.0,72,-99.99,,,0.03,Acu-Link.com,2013-11-19 18:33:00,
2013-11-19 12:48:00,37.9,30.4,29.46,South,180,6.3,-999.0,74,-99.99,,,0.04,Acu-Link.com,2013-11-19 18:48:00,
2013-11-19 13:03:00,38.1,30.9,29.44,South,180,5.3,-999.0,75,-99.99,,,0.05,Acu-Link.com,2013-11-19 19:03:00,
2013-11-19 13:19:00,37.4,30.5,29.44,WSW,247,2.2,-999.0,76,-99.99,,,0.06,Acu-Link.com,2013-11-19 19:19:00,
2013-11-19 13:34:00,38.3,31.4,29.45,SSW,202,4.2,-999.0,76,-99.99,,,0.07,Acu-Link.com,2013-11-19 19:34:00,
2013-11-19 13:49:00,38.3,31.7,29.43,SSW,202,3.7,-999.0,77,-99.99,,,0.07,Acu-Link.com,2013-11-19 19:49:00,
2013-11-19 14:04:00,38.8,31.9,29.44,WSW,247,4.2,-999.0,76,-99.99,,,0.08,Acu-Link.com,2013-11-19 20:04:00,
2013-11-19 14:19:00,38.7,32.1,29.42,South,180,3.7,-999.0,77,-99.99,,,0.08,Acu-Link.com,2013-11-19 20:19:00,
2013-11-19 14:35:00,39.2,32.6,29.42,NW,315,1.7,-999.0,77,-99.99,,,0.09,Acu-Link.com,2013-11-19 20:35:00,
2013-11-19 14:50:00,38.5,31.9,29.42,SSE,157,3.7,-999.0,77,-99.99,,,0.09,Acu-Link.com,2013-11-19 20:50:00,
2013-11-19 15:05:00,38.5,31.9,29.41,ESE,112,3.7,-999.0,77,-99.99,,,0.09,Acu-Link.com,2013-11-19 21:05:00,
2013-11-19 15:20:00,38.7,32.4,29.41,South,180,3.2,-999.0,78,-99.99,,,0.09,Acu-Link.com,2013-11-19 21:20:00,
2013-11-19 15:35:00,38.8,32.2,29.39,ENE,67,2.7,-999.0,77,-99.99,,,0.09,Acu-Link.com,2013-11-19 21:35:00,
2013-11-19 15:51:00,39.6,32.7,29.42,SSW,202,3.2,-999.0,76,-99.99,,,0.09,Acu-Link.com,2013-11-19 21:51:00,
2013-11-19 16:06:00,38.8,32.5,29.42,WSW,247,5.8,-999.0,78,-99.99,,,0.09,Acu-Link.com,2013-11-19 22:06:00,
2013-11-19 16:21:00,39.0,32.7,29.43,SW,225,2.7,-999.0,78,-99.99,,,0.10,Acu-Link.com,2013-11-19 22:21:00,
2013-11-19 16:36:00,38.1,32.5,29.42,SE,135,1.7,-999.0,80,-99.99,,,0.10,Acu-Link.com,2013-11-19 22:36:00,
2013-11-19 16:51:00,37.2,32.2,29.44,SW,225,0.0,-999.0,82,-99.99,,,0.10,Acu-Link.com,2013-11-19 22:51:00,
2013-11-19 17:07:00,36.0,31.9,29.45,South,180,0.0,-999.0,85,-99.99,,,0.10,Acu-Link.com,2013-11-19 23:07:00,
2013-11-19 17:22:00,35.2,31.7,29.44,SSW,202,1.7,-999.0,87,-99.99,,,0.10,Acu-Link.com,2013-11-19 23:22:00,
2013-11-19 17:37:00,34.3,31.1,29.44,NNW,337,1.1,-999.0,88,-99.99,,,0.10,Acu-Link.com,2013-11-19 23:37:00,
2013-11-19 17:52:00,33.8,30.9,29.44,West,270,0.0,-999.0,89,-99.99,,,0.10,Acu-Link.com,2013-11-19 23:52:00,
2013-11-19 18:07:00,34.0,31.1,29.44,WSW,247,2.7,-999.0,89,-99.99,,,0.10,Acu-Link.com,2013-11-20 00:07:00,
2013-11-19 18:23:00,34.2,31.3,29.47,WNW,292,0.0,-999.0,89,-99.99,,,0.10,Acu-Link.com,2013-11-20 00:23:00,
2013-11-19 18:38:00,33.6,30.4,29.45,WNW,292,1.7,-999.0,88,-99.99,,,0.10,Acu-Link.com,2013-11-20 00:38:00,
2013-11-19 18:53:00,32.7,30.1,29.45,WNW,292,0.0,-999.0,90,-99.99,,,0.10,Acu-Link.com,2013-11-20 00:53:00,
2013-11-19 19:08:00,32.0,29.9,29.46,NW,315,0.0,-999.0,92,-99.99,,,0.10,Acu-Link.com,2013-11-20 01:08:00,
2013-11-19 19:24:00,32.0,29.9,29.46,West,270,1.7,-999.0,92,-99.99,,,0.10,Acu-Link.com,2013-11-20 01:24:00,
2013-11-19 19:39:00,32.2,29.9,29.46,NNW,337,1.7,-999.0,91,-99.99,,,0.10,Acu-Link.com,2013-11-20 01:39:00,
2013-11-19 19:54:00,32.4,29.8,29.48,WNW,292,2.2,-999.0,90,-99.99,,,0.10,Acu-Link.com,2013-11-20 01:54:00,
2013-11-19 20:09:00,32.0,29.4,29.49,NNW,337,2.2,-999.0,90,-99.99,,,0.10,Acu-Link.com,2013-11-20 02:09:00,
2013-11-19 20:25:00,31.5,29.2,29.49,NW,315,2.7,-999.0,91,-99.99,,,0.10,Acu-Link.com,2013-11-20 02:25:00,
2013-11-19 20:40:00,31.5,28.1,29.51,West,270,4.2,-999.0,87,-99.99,,,0.10,Acu-Link.com,2013-11-20 02:40:00,
2013-11-19 20:55:00,30.9,26.6,29.51,SW,225,5.3,-999.0,84,-99.99,,,0.10,Acu-Link.com,2013-11-20 02:55:00,
2013-11-19 21:10:00,29.8,25.9,29.51,NNW,337,6.3,-999.0,85,-99.99,,,0.10,Acu-Link.com,2013-11-20 03:10:00,
2013-11-19 21:26:00,28.2,24.6,29.51,WNW,292,5.3,-999.0,86,-99.99,,,0.10,Acu-Link.com,2013-11-20 03:26:00,
2013-11-19 21:41:00,27.0,23.7,29.52,NNW,337,4.2,-999.0,87,-99.99,,,0.10,Acu-Link.com,2013-11-20 03:41:00,
2013-11-19 21:56:00,26.2,22.3,29.53,NW,315,5.3,-999.0,85,-99.99,,,0.10,Acu-Link.com,2013-11-20 03:56:00,
2013-11-19 22:11:00,25.2,20.8,29.55,WSW,247,4.2,-999.0,83,-99.99,,,0.10,Acu-Link.com,2013-11-20 04:11:00,
2013-11-19 22:27:00,24.4,19.4,29.56,WNW,292,4.2,-999.0,81,-99.99,,,0.10,Acu-Link.com,2013-11-20 04:27:00,
2013-11-19 22:42:00,24.3,19.3,29.57,NW,315,4.2,-999.0,81,-99.99,,,0.10,Acu-Link.com,2013-11-20 04:42:00,
2013-11-19 22:57:00,23.9,18.9,29.58,NW,315,5.3,-999.0,81,-99.99,,,0.10,Acu-Link.com,2013-11-20 04:57:00,
2013-11-19 23:12:00,23.7,18.7,29.61,NE,45,4.2,-999.0,81,-99.99,,,0.10,Acu-Link.com,2013-11-20 05:12:00,
2013-11-19 23:28:00,23.7,18.7,29.61,North,0,3.7,-999.0,81,-99.99,,,0.10,Acu-Link.com,2013-11-20 05:28:00,
2013-11-19 23:43:00,23.2,18.0,29.62,NE,45,3.7,-999.0,80,-99.99,,,0.10,Acu-Link.com,2013-11-20 05:43:00,
2013-11-19 23:58:00,22.8,17.9,29.64,West,270,3.2,-999.0,81,-99.99,,,0.10,Acu-Link.com,2013-11-20 05:58:00,